Time;durP1;ratioP1;P1;durP2;ratioP2;P2;SDS_P1;SDS_P2;PMS_P1;PMS_P2;Temp;Humidity;BMP_temperature;BMP_pressure;BME280_temperature;BME280_humidity;BME280_pressure;Samples;Min_cycle;Max_cycle;Signal;HPM_P1;HPM_P2
2022/06/28 00:01:58;;;;;;;3.95;2.65;;;;;;;;;;4989468;28;20093;-86
2022/06/28 00:04:23;;;;;;;3.88;2.70;;;;;;;;;;4989355;28;20503;-84
2022/06/28 00:06:48;;;;;;;4.05;2.65;;;;;;;;;;4991850;28;20177;-84
2022/06/28 00:09:14;;;;;;;3.88;2.53;;;;;;;;;;4989466;28;20037;-84
2022/06/28 00:11:41;;;;;;;4.13;2.70;;;;;;;;;;5004069;28;20033;-84
2022/06/28 00:16:04;;;;;;;4.30;2.78;;;;;;;;;;4990457;28;20120;-79
2022/06/28 00:16:53;;;;;;;4.40;3.10;;;;;;;;;;5004042;28;20572;-80
2022/06/28 00:19:19;;;;;;;4.75;3.25;;;;;;;;;;4991713;28;20403;-80
2022/06/28 00:21:45;;;;;;;4.90;3.25;;;;;;;;;;5007052;28;20504;-80
2022/06/28 00:24:11;;;;;;;4.75;3.50;;;;;;;;;;4986418;28;20088;-80
2022/06/28 00:26:36;;;;;;;4.28;3.15;;;;;;;;;;4989538;28;20145;-80
2022/06/28 00:29:05;;;;;;;4.68;3.30;;;;;;;;;;4973912;28;20188;-79
2022/06/28 00:31:30;;;;;;;5.25;3.63;;;;;;;;;;4981306;28;20057;-81
2022/06/28 00:33:55;;;;;;;4.72;3.47;;;;;;;;;;4973804;28;20095;-78
2022/06/28 00:36:21;;;;;;;5.03;3.50;;;;;;;;;;4973224;28;20037;-80
2022/06/28 00:38:46;;;;;;;4.65;3.47;;;;;;;;;;4973724;28;20033;-79
2022/06/28 00:41:32;;;;;;;4.30;3.08;;;;;;;;;;4973987;28;20042;-80
2022/06/28 00:43:57;;;;;;;5.15;3.35;;;;;;;;;;4933222;28;20127;-80
2022/06/28 00:46:23;;;;;;;5.35;3.50;;;;;;;;;;4916440;28;20566;-80
2022/06/28 00:48:48;;;;;;;5.13;3.70;;;;;;;;;;4933272;28;20054;-79
2022/06/28 00:51:13;;;;;;;5.20;3.67;;;;;;;;;;4930523;28;20558;-79
2022/06/28 00:53:39;;;;;;;4.88;3.60;;;;;;;;;;4915547;28;20043;-80
2022/06/28 00:56:05;;;;;;;5.00;3.72;;;;;;;;;;4931893;28;20039;-78
2022/06/28 00:58:30;;;;;;;5.60;3.70;;;;;;;;;;4916086;29;20457;-79
2022/06/28 01:00:55;;;;;;;4.95;3.80;;;;;;;;;;4930024;28;20499;-80
2022/06/28 01:03:22;;;;;;;5.32;3.70;;;;;;;;;;4931920;28;20438;-79
2022/06/28 01:05:49;;;;;;;5.07;3.57;;;;;;;;;;4930930;28;20035;-81
2022/06/28 01:08:14;;;;;;;5.35;4.00;;;;;;;;;;4933679;28;20309;-80
2022/06/28 01:10:41;;;;;;;5.97;4.18;;;;;;;;;;4932460;28;20077;-80
2022/06/28 01:13:08;;;;;;;5.35;4.28;;;;;;;;;;4931259;29;20043;-79
2022/06/28 01:15:34;;;;;;;5.57;4.03;;;;;;;;;;4930752;28;20043;-79
2022/06/28 01:18:01;;;;;;;5.50;3.90;;;;;;;;;;4931069;28;20688;-79
2022/06/28 01:20:26;;;;;;;5.45;3.95;;;;;;;;;;4933619;28;20049;-79
2022/06/28 01:22:53;;;;;;;5.72;3.97;;;;;;;;;;4975840;28;20046;-80
2022/06/28 01:25:19;;;;;;;7.18;3.95;;;;;;;;;;4991353;28;20516;-79
2022/06/28 01:27:45;;;;;;;5.43;3.63;;;;;;;;;;4988208;28;20033;-79
2022/06/28 01:30:11;;;;;;;5.88;3.78;;;;;;;;;;5005365;28;20033;-80
2022/06/28 01:32:36;;;;;;;5.68;4.30;;;;;;;;;;4992721;28;20397;-80
2022/06/28 01:35:02;;;;;;;5.75;4.25;;;;;;;;;;5005069;28;20172;-79
2022/06/28 01:37:30;;;;;;;6.50;4.15;;;;;;;;;;4988714;28;20440;-79
2022/06/28 01:39:55;;;;;;;7.22;4.90;;;;;;;;;;5004805;28;20161;-79
2022/06/28 01:42:20;;;;;;;6.47;5.00;;;;;;;;;;4981439;28;20113;-80
2022/06/28 01:44:46;;;;;;;6.28;4.68;;;;;;;;;;4997528;28;20037;-80
2022/06/28 01:47:16;;;;;;;7.50;5.10;;;;;;;;;;5000115;28;20026;-80
2022/06/28 01:49:41;;;;;;;6.63;5.60;;;;;;;;;;4987446;28;20105;-80
2022/06/28 01:52:07;;;;;;;6.18;4.82;;;;;;;;;;4982420;28;20172;-79
2022/06/28 01:54:32;;;;;;;6.80;4.93;;;;;;;;;;5004300;28;20506;-79
2022/06/28 01:56:58;;;;;;;7.68;5.63;;;;;;;;;;4996393;28;20472;-79
2022/06/28 01:59:23;;;;;;;7.50;5.97;;;;;;;;;;4983019;28;20488;-79
2022/06/28 02:01:49;;;;;;;6.97;5.25;;;;;;;;;;4988526;28;20061;-79
2022/06/28 02:04:19;;;;;;;7.43;5.53;;;;;;;;;;4989800;28;20049;-80
2022/06/28 02:06:45;;;;;;;8.15;5.60;;;;;;;;;;5005016;28;20121;-79
2022/06/28 02:09:10;;;;;;;7.80;5.25;;;;;;;;;;4989703;28;20033;-79
2022/06/28 02:11:36;;;;;;;7.80;5.97;;;;;;;;;;5005494;28;20034;-79
2022/06/28 02:14:01;;;;;;;7.35;5.43;;;;;;;;;;4990049;28;20519;-80
2022/06/28 02:16:26;;;;;;;8.38;5.90;;;;;;;;;;4993370;28;20044;-80
2022/06/28 02:18:51;;;;;;;7.50;5.50;;;;;;;;;;4989414;28;20041;-79
2022/06/28 02:21:17;;;;;;;7.05;5.10;;;;;;;;;;5004886;28;20045;-79
2022/06/28 02:23:42;;;;;;;7.30;5.05;;;;;;;;;;4997088;28;20417;-79
2022/06/28 02:26:11;;;;;;;8.38;5.50;;;;;;;;;;5007464;28;20037;-79
2022/06/28 02:28:39;;;;;;;7.45;5.45;;;;;;;;;;5005439;28;20030;-80
2022/06/28 02:31:12;;;;;;;7.07;5.20;;;;;;;;;;5004547;28;20659;-79
2022/06/28 02:33:38;;;;;;;8.80;5.97;;;;;;;;;;5009511;28;20038;-79
2022/06/28 02:41:32;;;;;;;5.95;4.30;;;;;;;;;;5002355;28;20045;-79
2022/06/28 02:43:57;;;;;;;6.65;4.45;;;;;;;;;;4993102;28;20041;-81
2022/06/28 02:46:23;;;;;;;5.95;4.10;;;;;;;;;;4985697;28;20034;-79
2022/06/28 02:48:48;;;;;;;5.88;3.90;;;;;;;;;;5008615;28;20121;-79
2022/06/28 02:51:14;;;;;;;5.80;3.95;;;;;;;;;;4990777;28;20462;-79
2022/06/28 02:53:39;;;;;;;5.80;3.75;;;;;;;;;;4992818;28;20041;-79
2022/06/28 02:56:05;;;;;;;6.25;3.60;;;;;;;;;;5007163;28;20042;-79
2022/06/28 02:58:30;;;;;;;4.60;3.15;;;;;;;;;;4992353;28;20034;-79
2022/06/28 03:00:55;;;;;;;4.43;2.97;;;;;;;;;;5006822;28;20700;-79
2022/06/28 03:03:21;;;;;;;4.60;3.05;;;;;;;;;;4993368;28;20562;-81
2022/06/28 03:05:46;;;;;;;4.85;3.20;;;;;;;;;;4990171;28;20030;-80
2022/06/28 03:08:11;;;;;;;4.78;2.85;;;;;;;;;;4991793;28;20121;-80
2022/06/28 03:10:37;;;;;;;4.20;2.63;;;;;;;;;;5001105;28;20425;-81
2022/06/28 03:13:02;;;;;;;4.20;2.80;;;;;;;;;;4988450;28;21246;-80
2022/06/28 03:15:28;;;;;;;5.00;3.25;;;;;;;;;;5006668;28;20045;-80
2022/06/28 03:17:53;;;;;;;5.25;3.35;;;;;;;;;;4994755;28;20185;-81
2022/06/28 03:20:19;;;;;;;5.30;3.20;;;;;;;;;;4984605;28;20909;-80
2022/06/28 03:22:44;;;;;;;5.07;3.10;;;;;;;;;;4991188;28;20069;-81
2022/06/28 03:25:10;;;;;;;4.75;3.03;;;;;;;;;;4995368;28;20036;-81
2022/06/28 03:27:35;;;;;;;4.10;2.50;;;;;;;;;;4991311;28;20045;-80
2022/06/28 03:30:01;;;;;;;4.28;2.92;;;;;;;;;;4995880;28;20034;-80
2022/06/28 03:32:26;;;;;;;4.13;2.58;;;;;;;;;;4989615;28;20045;-80
2022/06/28 03:34:52;;;;;;;4.53;2.63;;;;;;;;;;5007570;28;20041;-80
2022/06/28 03:37:17;;;;;;;3.92;2.55;;;;;;;;;;4992793;28;20029;-81
2022/06/28 03:39:43;;;;;;;4.10;2.80;;;;;;;;;;4990401;28;20508;-80
2022/06/28 03:42:08;;;;;;;4.55;2.63;;;;;;;;;;5007143;28;20128;-80
2022/06/28 03:44:33;;;;;;;4.20;2.45;;;;;;;;;;4989729;28;20129;-80
2022/06/28 03:46:59;;;;;;;3.70;2.40;;;;;;;;;;4992482;28;20037;-80
2022/06/28 03:49:24;;;;;;;4.22;2.78;;;;;;;;;;4988035;28;20084;-80
2022/06/28 03:51:49;;;;;;;4.57;2.75;;;;;;;;;;4990131;28;20037;-80
2022/06/28 03:54:15;;;;;;;4.25;2.65;;;;;;;;;;4984765;28;20029;-81
2022/06/28 03:56:40;;;;;;;4.63;2.83;;;;;;;;;;5006299;28;20026;-80
2022/06/28 03:59:05;;;;;;;3.95;2.88;;;;;;;;;;5007260;28;20409;-80
2022/06/28 04:01:31;;;;;;;4.38;2.53;;;;;;;;;;4994799;28;20181;-80
2022/06/28 04:03:56;;;;;;;4.15;2.42;;;;;;;;;;5006477;28;20042;-79
2022/06/28 04:06:22;;;;;;;3.83;2.50;;;;;;;;;;4988619;28;20034;-80
2022/06/28 04:08:47;;;;;;;4.55;2.70;;;;;;;;;;4997267;28;20596;-80
2022/06/28 04:11:16;;;;;;;4.55;2.70;;;;;;;;;;4989497;28;20041;-79
2022/06/28 04:13:49;;;;;;;4.07;2.28;;;;;;;;;;5006655;28;20042;-80
2022/06/28 04:16:16;;;;;;;3.90;2.58;;;;;;;;;;4988724;28;20116;-80
2022/06/28 04:18:43;;;;;;;4.18;2.55;;;;;;;;;;4990002;28;20033;-80
2022/06/28 04:21:09;;;;;;;;;;;;;;;;;;4993181;28;20450;-81
2022/06/28 04:23:34;;;;;;;4.05;2.58;;;;;;;;;;4991058;28;20024;-80
2022/06/28 04:26:00;;;;;;;4.40;2.50;;;;;;;;;;4989819;28;20456;-81
2022/06/28 04:28:25;;;;;;;4.22;2.65;;;;;;;;;;4991959;28;20533;-80
2022/06/28 04:30:50;;;;;;;4.22;2.97;;;;;;;;;;4988751;28;20073;-80
2022/06/28 04:33:16;;;;;;;4.40;2.58;;;;;;;;;;5007843;28;20609;-80
2022/06/28 04:35:41;;;;;;;4.05;2.67;;;;;;;;;;4989304;28;20034;-79
2022/06/28 04:38:06;;;;;;;4.05;2.60;;;;;;;;;;4982298;28;20033;-80
2022/06/28 04:40:32;;;;;;;4.53;3.10;;;;;;;;;;4988173;28;20042;-80
2022/06/28 04:42:57;;;;;;;4.35;2.80;;;;;;;;;;4985238;28;20072;-81
2022/06/28 04:45:22;;;;;;;4.18;2.75;;;;;;;;;;5005088;28;20037;-80
2022/06/28 04:47:48;;;;;;;4.40;2.63;;;;;;;;;;4991100;28;20057;-80
2022/06/28 04:50:13;;;;;;;4.20;2.60;;;;;;;;;;4981272;28;20120;-80
2022/06/28 04:52:41;;;;;;;4.05;2.58;;;;;;;;;;4989113;28;20045;-80
2022/06/28 04:55:07;;;;;;;5.05;2.75;;;;;;;;;;4989088;28;20503;-80
2022/06/28 04:57:33;;;;;;;5.03;2.85;;;;;;;;;;4994558;28;20140;-80
2022/06/28 05:00:02;;;;;;;4.32;2.92;;;;;;;;;;4981028;28;20393;-78
2022/06/28 05:02:27;;;;;;;4.32;2.40;;;;;;;;;;4989434;28;20092;-77
2022/06/28 05:04:52;;;;;;;4.25;2.80;;;;;;;;;;5005838;28;20030;-78
2022/06/28 05:07:18;;;;;;;3.22;2.00;;;;;;;;;;5006093;28;20022;-78
2022/06/28 05:09:43;;;;;;;4.63;2.60;;;;;;;;;;4998701;28;20054;-78
2022/06/28 05:12:08;;;;;;;4.82;2.40;;;;;;;;;;4982128;28;20121;-79
2022/06/28 05:14:34;;;;;;;3.33;2.03;;;;;;;;;;5005510;28;20040;-78
2022/06/28 05:17:01;;;;;;;3.83;2.33;;;;;;;;;;4988325;28;20060;-78
2022/06/28 05:19:26;;;;;;;3.65;2.40;;;;;;;;;;4995085;28;20038;-78
2022/06/28 05:21:52;;;;;;;4.28;2.35;;;;;;;;;;5022525;28;20747;-79
2022/06/28 05:24:17;;;;;;;4.57;2.60;;;;;;;;;;4994166;28;20079;-78
2022/06/28 05:26:43;;;;;;;2.80;1.70;;;;;;;;;;4988484;28;20029;-78
2022/06/28 05:29:08;;;;;;;3.72;2.20;;;;;;;;;;5005711;28;20508;-78
2022/06/28 05:31:33;;;;;;;3.22;1.98;;;;;;;;;;5005243;28;20045;-77
2022/06/28 05:34:00;;;;;;;3.58;2.03;;;;;;;;;;4996811;28;20111;-80
2022/06/28 05:36:25;;;;;;;3.65;1.92;;;;;;;;;;5004817;28;20117;-78
2022/06/28 05:38:51;;;;;;;3.60;2.08;;;;;;;;;;5005165;28;20109;-78
2022/06/28 05:41:16;;;;;;;3.63;2.20;;;;;;;;;;4999468;28;20564;-78
2022/06/28 05:43:44;;;;;;;3.50;2.00;;;;;;;;;;4989059;28;20128;-78
2022/06/28 05:46:09;;;;;;;3.70;2.20;;;;;;;;;;5003575;28;20064;-77
2022/06/28 05:48:36;;;;;;;3.95;1.88;;;;;;;;;;5004510;28;20413;-78
2022/06/28 05:51:01;;;;;;;3.60;2.10;;;;;;;;;;4987631;28;20070;-78
2022/06/28 05:53:30;;;;;;;4.15;1.70;;;;;;;;;;4997818;28;20571;-78
2022/06/28 05:55:55;;;;;;;4.95;2.30;;;;;;;;;;4995258;28;20041;-79
2022/06/28 05:58:20;;;;;;;3.42;2.10;;;;;;;;;;5004486;28;20038;-80
2022/06/28 06:00:46;;;;;;;3.40;2.05;;;;;;;;;;5002679;28;20370;-83
2022/06/28 06:03:11;;;;;;;3.03;1.77;;;;;;;;;;4988396;28;20112;-80
2022/06/28 06:05:37;;;;;;;4.97;1.95;;;;;;;;;;4990908;28;20100;-83
2022/06/28 06:08:02;;;;;;;3.03;1.70;;;;;;;;;;5011315;28;20042;-82
2022/06/28 06:10:28;;;;;;;3.15;2.00;;;;;;;;;;4999062;28;20580;-82
2022/06/28 06:12:53;;;;;;;3.03;1.80;;;;;;;;;;4985927;28;20057;-81
2022/06/28 06:15:21;;;;;;;3.20;1.80;;;;;;;;;;4993940;28;20108;-81
2022/06/28 06:17:46;;;;;;;2.97;1.77;;;;;;;;;;5006742;28;20513;-81
2022/06/28 06:20:14;;;;;;;2.67;1.50;;;;;;;;;;4995654;28;20054;-81
2022/06/28 06:22:40;;;;;;;3.65;2.20;;;;;;;;;;5003792;28;20481;-82
2022/06/28 06:25:06;;;;;;;2.80;1.70;;;;;;;;;;4995937;28;20045;-81
2022/06/28 06:27:32;;;;;;;6.53;2.03;;;;;;;;;;5004068;28;20042;-81
2022/06/28 06:29:58;;;;;;;3.00;1.70;;;;;;;;;;5008108;28;20458;-81
2022/06/28 06:32:23;;;;;;;3.30;1.98;;;;;;;;;;4994612;28;20041;-81
2022/06/28 06:34:52;;;;;;;3.13;1.98;;;;;;;;;;5000265;28;20034;-81
2022/06/28 06:37:17;;;;;;;3.28;2.05;;;;;;;;;;5001996;28;20038;-82
2022/06/28 06:39:43;;;;;;;3.25;2.08;;;;;;;;;;5011176;28;20038;-82
2022/06/28 06:42:08;;;;;;;4.35;1.95;;;;;;;;;;4999463;28;20033;-82
2022/06/28 06:44:34;;;;;;;3.05;1.70;;;;;;;;;;5004866;28;20620;-82
2022/06/28 06:47:00;;;;;;;2.70;1.45;;;;;;;;;;5011458;28;20122;-82
2022/06/28 06:49:25;;;;;;;4.07;2.20;;;;;;;;;;5005328;28;20034;-83
2022/06/28 06:51:51;;;;;;;3.28;1.92;;;;;;;;;;4996089;28;20393;-83
2022/06/28 06:54:16;;;;;;;2.65;1.55;;;;;;;;;;5011361;28;20041;-82
2022/06/28 06:56:42;;;;;;;2.90;1.70;;;;;;;;;;4999409;28;20034;-81
2022/06/28 06:59:08;;;;;;;3.38;1.77;;;;;;;;;;5002970;28;20034;-82
2022/06/28 07:01:37;;;;;;;2.90;1.80;;;;;;;;;;5001420;28;20109;-84
2022/06/28 07:04:02;;;;;;;3.05;1.80;;;;;;;;;;4995048;28;20112;-83
2022/06/28 07:06:28;;;;;;;2.45;1.40;;;;;;;;;;5001317;28;20101;-84
2022/06/28 07:08:53;;;;;;;2.60;1.50;;;;;;;;;;4997208;28;20038;-83
2022/06/28 07:11:19;;;;;;;2.95;1.73;;;;;;;;;;5004141;28;20030;-81
2022/06/28 07:13:44;;;;;;;2.63;1.60;;;;;;;;;;5007554;28;20385;-84
2022/06/28 07:16:10;;;;;;;2.40;1.40;;;;;;;;;;4978189;28;20057;-83
2022/06/28 07:18:37;;;;;;;4.75;1.67;;;;;;;;;;4995035;28;20036;-81
2022/06/28 07:21:02;;;;;;;3.77;1.40;;;;;;;;;;5001554;28;20029;-83
2022/06/28 07:23:28;;;;;;;2.40;1.33;;;;;;;;;;4992778;28;20060;-85
2022/06/28 07:25:54;;;;;;;2.75;1.35;;;;;;;;;;5009098;28;20516;-84
2022/06/28 07:28:20;;;;;;;2.30;1.27;;;;;;;;;;5007540;28;20050;-82
2022/06/28 07:30:47;;;;;;;2.58;1.40;;;;;;;;;;5001878;28;20644;-82
2022/06/28 07:33:12;;;;;;;2.45;1.30;;;;;;;;;;4995066;28;20108;-83
2022/06/28 07:35:40;;;;;;;2.38;1.30;;;;;;;;;;5006540;28;20117;-83
2022/06/28 07:38:05;;;;;;;3.13;1.85;;;;;;;;;;4997679;28;20505;-82
2022/06/28 07:40:35;;;;;;;2.13;1.20;;;;;;;;;;4993973;28;20068;-82
2022/06/28 07:43:02;;;;;;;2.53;1.30;;;;;;;;;;5001673;28;20117;-82
2022/06/28 07:45:27;;;;;;;2.65;1.45;;;;;;;;;;5005269;28;20038;-83
2022/06/28 07:47:53;;;;;;;3.05;1.83;;;;;;;;;;4991388;28;20567;-82
2022/06/28 07:53:04;;;;;;;2.47;1.45;;;;;;;;;;5006328;28;20388;-82
2022/06/28 07:55:30;;;;;;;2.53;1.40;;;;;;;;;;5009546;28;20041;-82
2022/06/28 07:57:56;;;;;;;3.28;1.80;;;;;;;;;;4995633;28;20100;-83
2022/06/28 08:00:23;;;;;;;2.78;1.45;;;;;;;;;;5009616;28;20038;-83
2022/06/28 08:02:51;;;;;;;2.65;1.50;;;;;;;;;;4994534;28;20465;-83
2022/06/28 08:05:19;;;;;;;2.40;1.27;;;;;;;;;;5005266;28;20041;-82
2022/06/28 08:07:45;;;;;;;2.70;1.38;;;;;;;;;;4999240;28;20069;-83
2022/06/28 08:10:11;;;;;;;2.60;1.30;;;;;;;;;;5002692;28;20033;-83
2022/06/28 08:12:37;;;;;;;2.60;1.10;;;;;;;;;;5025585;28;20097;-82
2022/06/28 08:15:05;;;;;;;2.55;1.20;;;;;;;;;;4997379;28;20436;-82
2022/06/28 08:17:30;;;;;;;2.00;1.10;;;;;;;;;;4991170;28;20042;-83
2022/06/28 08:19:56;;;;;;;2.88;1.40;;;;;;;;;;5000873;28;20358;-84
2022/06/28 08:22:24;;;;;;;2.47;1.30;;;;;;;;;;5008118;28;20112;-82
2022/06/28 08:24:49;;;;;;;2.90;1.23;;;;;;;;;;4989186;28;20485;-82
2022/06/28 08:27:15;;;;;;;2.20;1.00;;;;;;;;;;4983392;28;20088;-83
2022/06/28 08:29:45;;;;;;;3.13;1.30;;;;;;;;;;4976591;28;20030;-83
2022/06/28 08:32:11;;;;;;;2.25;1.08;;;;;;;;;;4976287;28;20037;-83
2022/06/28 08:34:37;;;;;;;2.45;1.27;;;;;;;;;;4973856;28;20042;-83
2022/06/28 08:37:03;;;;;;;2.08;1.02;;;;;;;;;;4992119;28;20040;-83
2022/06/28 08:39:29;;;;;;;2.00;0.85;;;;;;;;;;4981577;28;20378;-83
2022/06/28 08:41:55;;;;;;;3.03;0.90;;;;;;;;;;4983163;28;20030;-82
2022/06/28 08:44:24;;;;;;;1.48;0.90;;;;;;;;;;4968841;28;20493;-83
2022/06/28 08:46:51;;;;;;;1.90;0.90;;;;;;;;;;4976845;28;20121;-83
2022/06/28 08:49:23;;;;;;;;;;;;;;;;;;4994396;28;20033;-84
2022/06/28 08:51:49;;;;;;;1.58;0.75;;;;;;;;;;4977952;28;20385;-83
2022/06/28 08:54:18;;;;;;;1.73;0.90;;;;;;;;;;4976772;28;20040;-82
2022/06/28 08:56:44;;;;;;;2.85;0.60;;;;;;;;;;4967850;28;20349;-82
2022/06/28 08:59:10;;;;;;;1.23;0.73;;;;;;;;;;4978244;28;20112;-82
2022/06/28 09:01:35;;;;;;;3.05;0.90;;;;;;;;;;4967708;28;20077;-83
2022/06/28 09:04:03;;;;;;;2.45;1.02;;;;;;;;;;5009506;28;20178;-83
2022/06/28 09:06:28;;;;;;;1.80;0.80;;;;;;;;;;4975546;28;20045;-83
2022/06/28 09:08:54;;;;;;;1.92;0.88;;;;;;;;;;4973299;28;20038;-83
2022/06/28 09:11:19;;;;;;;2.45;0.60;;;;;;;;;;4968869;28;20045;-82
2022/06/28 09:13:45;;;;;;;1.67;0.75;;;;;;;;;;4977353;28;20034;-83
2022/06/28 09:16:13;;;;;;;1.27;0.60;;;;;;;;;;4991353;28;20092;-83
2022/06/28 09:18:38;;;;;;;1.48;0.80;;;;;;;;;;4983874;28;20039;-83
2022/06/28 09:21:09;;;;;;;1.67;0.82;;;;;;;;;;5009794;28;20378;-83
2022/06/28 09:23:40;;;;;;;1.92;0.88;;;;;;;;;;4996257;28;20081;-83
2022/06/28 09:26:20;;;;;;;4.18;0.80;;;;;;;;;;4992177;28;20545;-83
2022/06/28 09:28:49;;;;;;;1.67;0.95;;;;;;;;;;5001464;28;20034;-83
2022/06/28 09:31:21;;;;;;;1.40;0.73;;;;;;;;;;4966941;28;20037;-83
2022/06/28 09:34:03;;;;;;;0.70;0.40;;;;;;;;;;4990544;28;20034;-83
2022/06/28 09:36:41;;;;;;;1.20;0.60;;;;;;;;;;4978748;28;20401;-82
2022/06/28 09:39:14;;;;;;;1.05;0.50;;;;;;;;;;4996359;28;20426;-83
2022/06/28 09:41:45;;;;;;;1.67;0.70;;;;;;;;;;4991132;28;20117;-83
2022/06/28 09:44:10;;;;;;;1.25;0.60;;;;;;;;;;5007358;28;20045;-83
2022/06/28 09:46:38;;;;;;;2.00;0.68;;;;;;;;;;4991901;28;20038;-83
2022/06/28 09:49:05;;;;;;;1.13;0.60;;;;;;;;;;5001243;28;20548;-83
2022/06/28 09:51:32;;;;;;;1.88;0.68;;;;;;;;;;4992653;28;20054;-83
2022/06/28 09:54:06;;;;;;;;;;;;;;;;;;4987221;28;20042;-82
2022/06/28 09:56:39;;;;;;;1.50;0.70;;;;;;;;;;4972667;28;19914;-82
2022/06/28 09:59:06;;;;;;;1.13;0.60;;;;;;;;;;5007835;28;20799;-83
2022/06/28 10:01:33;;;;;;;1.13;0.52;;;;;;;;;;5000145;28;20034;-82
2022/06/28 10:04:00;;;;;;;0.90;0.50;;;;;;;;;;5001800;28;20045;-82
2022/06/28 10:06:26;;;;;;;1.10;0.43;;;;;;;;;;4998247;28;20042;-83
2022/06/28 10:08:52;;;;;;;0.90;0.50;;;;;;;;;;4991867;28;20056;-83
2022/06/28 10:11:18;;;;;;;1.48;0.65;;;;;;;;;;4996832;28;20030;-82
2022/06/28 10:16:43;;;;;;;;;;;;;;;;;;5009587;28;20041;-82
2022/06/28 10:19:10;;;;;;;2.50;0.60;;;;;;;;;;5007846;28;20376;-84
2022/06/28 10:21:52;;;;;;;1.00;0.43;;;;;;;;;;5001710;28;20034;-84
2022/06/28 10:24:18;;;;;;;1.05;0.47;;;;;;;;;;4991213;28;20039;-84
2022/06/28 10:26:45;;;;;;;1.38;0.50;;;;;;;;;;4947254;28;20041;-84
2022/06/28 10:29:11;;;;;;;;;;;;;;;;;;4962407;28;20039;-83
2022/06/28 10:31:48;;;;;;;1.10;0.50;;;;;;;;;;4955604;28;19913;-82
2022/06/28 10:34:14;;;;;;;;;;;;;;;;;;4972658;28;20054;-83
2022/06/28 10:36:49;;;;;;;1.48;0.60;;;;;;;;;;4971967;28;19920;-83
2022/06/28 10:39:24;;;;;;;1.50;0.70;;;;;;;;;;4960441;28;20038;-83
2022/06/28 10:41:52;;;;;;;1.33;0.50;;;;;;;;;;4955365;28;20520;-84
2022/06/28 10:44:19;;;;;;;0.93;0.47;;;;;;;;;;4954423;28;20034;-83
2022/06/28 10:46:57;;;;;;;1.00;0.40;;;;;;;;;;4963597;28;20043;-83
2022/06/28 10:49:23;;;;;;;1.70;0.57;;;;;;;;;;4989464;28;20034;-83
2022/06/28 10:52:10;;;;;;;0.88;0.47;;;;;;;;;;4972538;28;20038;-83
2022/06/28 10:54:36;;;;;;;2.92;0.40;;;;;;;;;;4956327;28;20038;-83
2022/06/28 10:57:22;;;;;;;1.30;0.40;;;;;;;;;;4971062;28;20921;-83
2022/06/28 10:59:53;;;;;;;2.55;0.40;;;;;;;;;;4972166;28;20791;-83
2022/06/28 11:02:19;;;;;;;0.85;0.30;;;;;;;;;;4970107;28;20034;-83
2022/06/28 11:05:06;;;;;;;0.93;0.40;;;;;;;;;;4959643;28;20477;-83
2022/06/28 11:07:34;;;;;;;0.50;0.20;;;;;;;;;;4975834;28;20038;-83
2022/06/28 11:09:59;;;;;;;1.20;0.45;;;;;;;;;;4959600;28;20034;-83
2022/06/28 11:12:27;;;;;;;1.17;0.40;;;;;;;;;;4973237;28;20045;-83
2022/06/28 11:15:25;;;;;;;2.20;0.50;;;;;;;;;;4976259;28;20041;-84
2022/06/28 11:17:51;;;;;;;0.65;0.38;;;;;;;;;;4974575;28;20038;-83
2022/06/28 11:20:21;;;;;;;0.68;0.30;;;;;;;;;;4965769;28;20342;-82
2022/06/28 11:22:51;;;;;;;0.85;0.32;;;;;;;;;;4969999;28;20058;-83
2022/06/28 11:25:22;;;;;;;0.95;0.40;;;;;;;;;;4958170;28;20034;-83
2022/06/28 11:27:54;;;;;;;0.50;0.30;;;;;;;;;;4951365;28;20113;-83
2022/06/28 11:30:23;;;;;;;0.95;0.40;;;;;;;;;;4975109;28;20036;-83
2022/06/28 11:32:50;;;;;;;0.77;0.38;;;;;;;;;;4974518;28;20026;-83
2022/06/28 11:35:15;;;;;;;;;;;;;;;;;;4978890;28;20038;-84
2022/06/28 11:37:53;;;;;;;0.87;0.40;;;;;;;;;;4983217;28;19913;-83
2022/06/28 11:40:21;;;;;;;1.00;0.30;;;;;;;;;;4957883;28;20053;-81
2022/06/28 11:42:48;;;;;;;0.70;0.38;;;;;;;;;;4942938;28;20498;-84
2022/06/28 11:45:14;;;;;;;0.80;0.37;;;;;;;;;;4955765;28;20034;-82
2022/06/28 11:47:44;;;;;;;1.08;0.45;;;;;;;;;;4958292;28;20405;-82
2022/06/28 11:50:15;;;;;;;0.93;0.30;;;;;;;;;;4958046;28;20433;-82
2022/06/28 11:52:47;;;;;;;1.55;0.50;;;;;;;;;;4975142;28;20066;-82
2022/06/28 11:55:14;;;;;;;1.00;0.40;;;;;;;;;;4974531;28;20038;-83
2022/06/28 11:57:39;;;;;;;0.70;0.30;;;;;;;;;;4971987;28;20027;-82
2022/06/28 12:00:06;;;;;;;1.77;0.45;;;;;;;;;;4955794;28;20347;-83
2022/06/28 12:02:50;;;;;;;1.13;0.52;;;;;;;;;;4965504;28;20031;-82
2022/06/28 12:05:33;;;;;;;0.52;0.32;;;;;;;;;;4943728;28;20069;-83
2022/06/28 12:08:00;;;;;;;0.90;0.40;;;;;;;;;;4974833;28;20062;-83
2022/06/28 12:10:28;;;;;;;1.35;0.60;;;;;;;;;;4965551;28;20415;-82
2022/06/28 12:12:54;;;;;;;1.00;0.40;;;;;;;;;;4992545;28;20106;-82
2022/06/28 12:15:32;;;;;;;0.80;0.30;;;;;;;;;;4957937;28;20051;-83
2022/06/28 12:18:06;;;;;;;0.80;0.40;;;;;;;;;;4975005;28;20042;-82
2022/06/28 12:20:35;;;;;;;0.60;0.30;;;;;;;;;;4934957;28;20113;-83
2022/06/28 12:23:03;;;;;;;2.13;0.70;;;;;;;;;;4963092;28;20058;-83
2022/06/28 12:25:30;;;;;;;1.40;0.50;;;;;;;;;;4969590;28;20042;-83
2022/06/28 12:27:55;;;;;;;0.70;0.30;;;;;;;;;;4950004;28;20038;-83
2022/06/28 12:30:22;;;;;;;0.77;0.40;;;;;;;;;;4973637;28;20478;-82
2022/06/28 12:32:48;;;;;;;1.15;0.30;;;;;;;;;;4963303;28;20030;-84
2022/06/28 12:35:18;;;;;;;0.90;0.40;;;;;;;;;;4956753;28;20038;-83
2022/06/28 12:37:44;;;;;;;1.40;0.45;;;;;;;;;;4963486;28;20479;-83
2022/06/28 12:40:11;;;;;;;0.65;0.38;;;;;;;;;;4947808;28;20060;-83
2022/06/28 12:42:37;;;;;;;1.50;0.47;;;;;;;;;;4973245;28;20037;-83
2022/06/28 12:45:06;;;;;;;2.35;0.40;;;;;;;;;;4968903;28;20101;-85
2022/06/28 12:47:35;;;;;;;0.88;0.40;;;;;;;;;;4967325;28;20030;-82
2022/06/28 12:50:04;;;;;;;0.63;0.40;;;;;;;;;;4957973;28;20108;-82
2022/06/28 12:52:31;;;;;;;1.05;0.40;;;;;;;;;;4956141;28;20049;-82
2022/06/28 12:55:00;;;;;;;1.00;0.50;;;;;;;;;;4956098;28;20038;-84
2022/06/28 12:57:26;;;;;;;0.70;0.30;;;;;;;;;;4967923;28;20030;-84
2022/06/28 12:59:52;;;;;;;0.63;0.30;;;;;;;;;;4961504;28;20070;-86
2022/06/28 13:02:17;;;;;;;0.90;0.40;;;;;;;;;;4953521;28;20058;-86
2022/06/28 13:04:46;;;;;;;2.22;0.50;;;;;;;;;;4962534;28;20545;-84
2022/06/28 13:07:12;;;;;;;1.30;0.50;;;;;;;;;;4970044;28;20038;-84
2022/06/28 13:09:37;;;;;;;0.80;0.32;;;;;;;;;;4964650;28;20402;-87
2022/06/28 13:12:03;;;;;;;1.05;0.43;;;;;;;;;;4967940;28;20034;-85
2022/06/28 13:14:28;;;;;;;0.98;0.38;;;;;;;;;;4967569;28;20062;-85
2022/06/28 13:16:55;;;;;;;0.90;0.40;;;;;;;;;;4942531;28;20045;-81
2022/06/28 13:19:23;;;;;;;1.00;0.40;;;;;;;;;;4969705;28;20053;-82
2022/06/28 13:21:48;;;;;;;1.60;0.40;;;;;;;;;;4947211;28;20035;-81
2022/06/28 13:24:15;;;;;;;0.70;0.30;;;;;;;;;;4973576;28;20069;-81
2022/06/28 13:26:42;;;;;;;0.85;0.40;;;;;;;;;;4959101;28;20027;-81
2022/06/28 13:29:08;;;;;;;;;;;;;;;;;;4974288;28;20053;-81
2022/06/28 13:31:35;;;;;;;1.15;0.40;;;;;;;;;;4956385;28;20361;-82
2022/06/28 13:34:01;;;;;;;1.33;0.32;;;;;;;;;;4956183;28;20110;-81
2022/06/28 13:36:26;;;;;;;1.13;0.60;;;;;;;;;;4964284;28;20034;-85
2022/06/28 13:38:52;;;;;;;0.30;0.20;;;;;;;;;;4957310;28;20065;-88
2022/06/28 13:41:17;;;;;;;0.88;0.30;;;;;;;;;;4952316;28;20493;-87
2022/06/28 13:43:45;;;;;;;0.82;0.30;;;;;;;;;;4956716;28;20057;-87
2022/06/28 13:46:11;;;;;;;0.47;0.30;;;;;;;;;;4955067;28;20057;-86
2022/06/28 13:48:38;;;;;;;1.25;0.50;;;;;;;;;;4954901;28;20069;-85
2022/06/28 13:51:04;;;;;;;0.95;0.43;;;;;;;;;;4955426;28;20429;-85
2022/06/28 13:53:31;;;;;;;0.55;0.30;;;;;;;;;;4957448;28;20034;-86
2022/06/28 13:55:57;;;;;;;1.05;0.40;;;;;;;;;;4951712;28;20129;-89
2022/06/28 13:58:23;;;;;;;0.63;0.30;;;;;;;;;;4953175;28;20030;-90
2022/06/28 14:00:48;;;;;;;0.77;0.30;;;;;;;;;;4984380;28;20041;-89
2022/06/28 14:03:14;;;;;;;1.10;0.40;;;;;;;;;;4966200;28;20145;-87
2022/06/28 14:05:40;;;;;;;0.90;0.35;;;;;;;;;;4960207;28;20089;-87
2022/06/28 14:08:06;;;;;;;1.30;0.40;;;;;;;;;;4961310;28;20037;-89
2022/06/28 14:10:33;;;;;;;1.67;0.43;;;;;;;;;;4955935;28;20041;-86
2022/06/28 14:13:01;;;;;;;0.90;0.30;;;;;;;;;;4952632;28;20277;-88
2022/06/28 14:15:26;;;;;;;0.75;0.30;;;;;;;;;;4952829;28;20494;-85
2022/06/28 14:17:52;;;;;;;1.17;0.40;;;;;;;;;;4961308;28;20046;-86
2022/06/28 14:20:17;;;;;;;1.00;0.40;;;;;;;;;;4968802;28;20085;-88
2022/06/28 14:22:42;;;;;;;0.77;0.40;;;;;;;;;;4961823;28;20506;-88
2022/06/28 14:25:08;;;;;;;1.05;0.47;;;;;;;;;;4962343;28;20464;-87
2022/06/28 14:27:34;;;;;;;0.75;0.38;;;;;;;;;;4953470;28;20496;-86
2022/06/28 14:29:59;;;;;;;1.95;0.38;;;;;;;;;;4961958;28;20035;-87
2022/06/28 14:32:24;;;;;;;1.00;0.30;;;;;;;;;;4956345;28;20042;-87
2022/06/28 14:34:50;;;;;;;3.58;0.68;;;;;;;;;;4957437;28;20041;-88
2022/06/28 14:37:15;;;;;;;2.35;0.47;;;;;;;;;;4972822;28;20045;-84
2022/06/28 14:39:41;;;;;;;0.93;0.40;;;;;;;;;;4957151;28;20073;-87
2022/06/28 14:42:07;;;;;;;0.80;0.40;;;;;;;;;;4952436;28;20046;-87
2022/06/28 14:44:34;;;;;;;0.75;0.30;;;;;;;;;;4965866;28;20116;-87
2022/06/28 14:47:00;;;;;;;0.75;0.40;;;;;;;;;;4973000;28;20544;-87
2022/06/28 14:49:25;;;;;;;0.73;0.32;;;;;;;;;;4960249;28;20042;-86
2022/06/28 14:51:50;;;;;;;1.00;0.40;;;;;;;;;;4958316;28;20105;-85
2022/06/28 14:54:16;;;;;;;1.45;0.30;;;;;;;;;;4960920;28;20034;-85
2022/06/28 14:56:42;;;;;;;0.73;0.40;;;;;;;;;;4955176;28;20038;-86